Aeroporto :
LOGIN :

Iscrizione | Disclaimer

   EN    FR    IT 

 










Sommario :    VFR   VFR Marginale   IFR   IFR Intensivo   IFR Molto Intensivo
Visibilità : 
Base nubi : 
>= 8 km
>= 3000ft
5 / 8 km
1000 / 3000 ft
1500m / 5 km
500 / 1000 ft
800 / 1500m
200 / 500 ft
< 800m
< 200 ft
Simboli :   Temporali  Nebbia  Neve Forte  Precipitazioni Forti  Vento > 20 kt
SIGMETs :   Varie  Temporali  Ghiacco  Turbolenza  Onda orograficha  Ceneri Vulcaniche






- Altitudine del aeroporto : 616 ft
- Codice IATA : PUF


LFBP - Pau

ULTIMO METAR :
  • 060600Z AUTO VRB03KT 9999 -RA FEW050 SCT074 BKN096 12/10 Q1018 TEMPO 4000 -RA BKN013

METARs OBSOLETI :
  • 060530Z AUTO VRB02KT 9999 -RA FEW062 BKN078 12/10 Q1018 TEMPO 4000 -RA BKN013
  • 060500Z AUTO 26002KT 9999 -RA BKN082 BKN110 12/09 Q1017 NOSIG
  • 060430Z AUTO 17003KT 9999 FEW082 SCT110 BKN130 13/09 Q1017 NOSIG
  • 060400Z AUTO 21002KT 9999 -RA BKN086 13/08 Q1016 NOSIG
  • 060330Z AUTO 03003KT 9999 BKN088 13/08 Q1016 NOSIG

TAF TAF LFBP
Valido dal 06 a 06 ore il 07 a 06 ore UTC


060500Z 0606/0706 VRB03KT 9999 -RA BKN060
PROB30
TEMPO 0606/0612 4000 -RA BKN013
BECMG 0616/0618 NSW
BECMG 0620/0622 CAVOK
TEMPO 0700/0706 3000 BR SCT001
PROB30
TEMPO 0701/0706 1200 BR BKN001



MetMap, La meteo Aeronautica in un colpo d'occhio ! - Copyright ORBIFLY Dicembre 2007 - Disclaimer

ORBIFLY MET'MAP TEAM :

Programmazione e sviluppo : Alexandra Zaïnal
Concezione : Baudouin d'Aumeries
Aiuto per la programmazione : Marc-Olivier Méhu
Supporto tecnico e logistico : Manuel Goepfert
Aiuto per la traduzione : Arnaldo La Scala

Contatto : metmap@orbifly.com




FONTI E CREDITI :

   NOAA